MMRX/REX METAR and TAF weather

Enter ICAO airport designator
Station Type Date Time Source
MMRX METAR 2019/05/25 02:40 UTC NOAA

MMRX 250240Z 13008KT 6SM BKN020 28/23 A2991 RMK SLP122 52023 9// 8/500 HZY


Station Type Date Time Source
MMRX Decoded METAR 2019/05/25 02:40 UTC NOAA

Reynosa International Airport , Mexico (MMRX) 26-01N 098-14W
May 24, 2019 - 10:40 PM EDT / 2019.05.25 0240 UTC
Wind: from the SE (130 degrees) at 9 MPH (8 KT):0
Visibility: 6 mile(s):0
Sky conditions: mostly cloudy
Temperature: 82 F (28 C)
Dew Point: 73 F (23 C)
Relative Humidity: 74%
Pressure (altimeter): 29.91 in. Hg (1012 hPa)
Pressure tendency: 0.07 inches (2.3 hPa) higher than three hours ago
ob: MMRX 250240Z 13008KT 6SM BKN020 28/23 A2991 RMK SLP122 52023 9// 8/500 HZY
cycle: 2

Station Type Date Time Source
MMRX TAF 2019/05/25 06:28 UTC NOAA

TAF MMRX 250521Z 2506/2606 13008KT 6SM HZ BKN020
FM251000 13015KT 5SM HZ BKN015
TEMPO 2510/2514 2SM BR BKN010
FM251500 13015G25KT 5SM HZ BKN020
FM260300 13012KT 5SM HZ BKN015

Example: see airport list